createdAt,value
2019-01-29T00:01:39.482Z,1.60
2019-01-29T00:04:08.128Z,1.60
2019-01-29T00:06:36.559Z,1.60
2019-01-29T00:09:08.490Z,1.60
2019-01-29T00:11:37.013Z,1.60
2019-01-29T00:14:05.422Z,1.60
2019-01-29T00:16:33.709Z,1.60
2019-01-29T00:19:01.822Z,1.60
2019-01-29T00:21:30.504Z,1.60
2019-01-29T00:23:59.432Z,1.60
2019-01-29T00:26:27.865Z,1.50
2019-01-29T00:28:56.314Z,1.60
2019-01-29T00:31:25.225Z,1.60
2019-01-29T00:33:53.688Z,1.60
2019-01-29T00:36:21.793Z,1.70
2019-01-29T00:38:49.780Z,1.80
2019-01-29T00:41:18.160Z,1.70
2019-01-29T00:43:46.312Z,1.70
2019-01-29T00:46:14.297Z,1.70
2019-01-29T00:48:42.654Z,1.70
2019-01-29T00:51:11.669Z,1.80
2019-01-29T00:53:40.013Z,1.80
2019-01-29T00:56:08.300Z,1.80
2019-01-29T00:58:37.165Z,1.80
2019-01-29T01:01:05.542Z,1.70
2019-01-29T01:03:33.956Z,1.70
2019-01-29T01:06:02.481Z,1.90
2019-01-29T01:08:30.673Z,1.80
2019-01-29T01:10:58.992Z,1.90
2019-01-29T01:13:27.539Z,1.90
2019-01-29T01:15:55.845Z,1.80
2019-01-29T01:18:23.833Z,1.80
2019-01-29T01:20:52.182Z,1.80
2019-01-29T01:23:20.266Z,1.70
2019-01-29T01:25:48.646Z,1.60
2019-01-29T01:28:17.668Z,1.50
2019-01-29T01:30:46.284Z,1.40
2019-01-29T01:33:14.944Z,1.40
2019-01-29T01:35:43.705Z,1.40
2019-01-29T01:38:12.098Z,1.40
2019-01-29T01:40:40.593Z,1.40
2019-01-29T01:43:09.101Z,1.30
2019-01-29T01:45:37.485Z,1.40
2019-01-29T01:48:05.603Z,1.40
2019-01-29T01:50:34.089Z,1.50
2019-01-29T01:53:02.367Z,1.40
2019-01-29T01:55:31.693Z,1.40
2019-01-29T01:57:59.838Z,1.50
2019-01-29T02:00:28.050Z,1.40
2019-01-29T02:02:56.245Z,1.50
2019-01-29T02:05:24.342Z,1.50
2019-01-29T02:07:52.886Z,1.50
2019-01-29T02:10:26.551Z,1.50
2019-01-29T02:12:54.886Z,1.50
2019-01-29T02:15:23.159Z,1.50
2019-01-29T02:17:51.564Z,1.50
2019-01-29T02:20:20.119Z,1.50
2019-01-29T02:22:48.026Z,1.50
2019-01-29T02:25:16.399Z,1.50
2019-01-29T02:27:44.545Z,1.50
2019-01-29T02:30:15.887Z,1.50
2019-01-29T02:32:43.951Z,1.50
2019-01-29T02:35:12.591Z,1.50
2019-01-29T02:37:40.746Z,1.50
2019-01-29T02:40:11.695Z,1.50
2019-01-29T02:42:40.243Z,1.50
2019-01-29T02:45:09.324Z,1.50
2019-01-29T02:47:38.365Z,1.60
2019-01-29T02:50:07.292Z,1.60
2019-01-29T02:52:35.541Z,1.60
2019-01-29T02:55:04.751Z,1.60
2019-01-29T02:57:33.251Z,1.60
2019-01-29T03:00:01.653Z,1.50
2019-01-29T03:02:29.738Z,1.60
2019-01-29T03:04:57.897Z,1.60
2019-01-29T03:07:26.588Z,1.50
2019-01-29T03:09:55.173Z,1.60
2019-01-29T03:12:23.959Z,1.50
2019-01-29T03:14:52.236Z,1.60
2019-01-29T03:17:20.617Z,1.60
2019-01-29T03:19:48.727Z,1.50
2019-01-29T03:22:17.052Z,1.50
2019-01-29T03:24:45.680Z,1.50
2019-01-29T03:27:14.116Z,1.50
2019-01-29T03:29:42.534Z,1.50
2019-01-29T03:32:10.866Z,1.50
2019-01-29T03:34:39.521Z,1.50
2019-01-29T03:37:07.773Z,1.50
2019-01-29T03:39:36.392Z,1.50
2019-01-29T03:42:04.919Z,1.50
2019-01-29T03:44:33.272Z,1.50
2019-01-29T03:47:01.397Z,1.50
2019-01-29T03:49:29.334Z,1.40
2019-01-29T03:51:57.925Z,1.30
2019-01-29T03:54:26.607Z,1.20
2019-01-29T03:56:54.957Z,1.20
2019-01-29T03:59:23.385Z,1.20
2019-01-29T04:01:51.520Z,1.20
2019-01-29T04:04:19.801Z,1.30
2019-01-29T04:06:48.197Z,1.20
2019-01-29T04:09:16.534Z,1.20
2019-01-29T04:11:44.608Z,1.20
2019-01-29T04:14:13.327Z,1.20
2019-01-29T04:16:41.478Z,1.20
2019-01-29T04:19:12.694Z,1.20
2019-01-29T04:21:41.010Z,1.20
2019-01-29T04:24:09.279Z,1.10
2019-01-29T04:26:37.658Z,1.20
2019-01-29T04:29:06.089Z,1.20
2019-01-29T04:31:34.459Z,1.20
2019-01-29T04:34:02.590Z,1.20
2019-01-29T04:36:30.854Z,1.20
2019-01-29T04:38:59.232Z,1.20
2019-01-29T04:41:27.912Z,1.30
2019-01-29T04:43:56.638Z,1.30
2019-01-29T04:46:25.342Z,1.30
2019-01-29T04:48:53.773Z,1.20
2019-01-29T04:51:21.844Z,1.20
2019-01-29T04:53:57.292Z,1.30
2019-01-29T04:56:20.389Z,1.30
2019-01-29T04:59:00.611Z,1.40
2019-01-29T05:01:28.508Z,1.40
2019-01-29T05:03:57.137Z,1.40
2019-01-29T05:06:35.560Z,1.40
2019-01-29T05:09:08.081Z,1.40
2019-01-29T05:11:39.674Z,1.30
2019-01-29T05:14:08.151Z,1.20
2019-01-29T05:16:36.564Z,1.20
2019-01-29T05:19:04.882Z,1.20
2019-01-29T05:21:33.309Z,1.20
2019-01-29T05:24:06.595Z,1.20
2019-01-29T05:26:30.732Z,1.20
2019-01-29T05:28:58.811Z,1.20
2019-01-29T05:31:26.938Z,1.20
2019-01-29T05:33:54.652Z,1.20
2019-01-29T05:36:23.160Z,1.20
2019-01-29T05:38:50.853Z,1.20
2019-01-29T05:41:18.518Z,1.20
2019-01-29T05:43:46.715Z,1.20
2019-01-29T05:46:14.647Z,1.10
2019-01-29T05:48:42.750Z,1.10
2019-01-29T05:51:10.754Z,1.10
2019-01-29T05:53:38.457Z,1.10
2019-01-29T05:56:06.330Z,1.10
2019-01-29T05:58:34.403Z,1.20
2019-01-29T06:01:03.109Z,1.20
2019-01-29T06:03:31.164Z,1.20
2019-01-29T06:05:59.590Z,1.10
2019-01-29T06:08:27.717Z,1.00
2019-01-29T06:10:55.977Z,1.00
2019-01-29T06:13:24.404Z,0.90
2019-01-29T06:15:52.482Z,0.90
2019-01-29T06:18:21.088Z,0.90
2019-01-29T06:20:49.795Z,0.90
2019-01-29T06:23:18.093Z,1.00
2019-01-29T06:25:46.289Z,1.00
2019-01-29T06:28:14.387Z,1.10
2019-01-29T06:30:44.111Z,1.20
2019-01-29T06:33:13.026Z,1.20
2019-01-29T06:35:40.989Z,1.30
2019-01-29T06:38:09.730Z,1.30
2019-01-29T06:40:37.918Z,1.30
2019-01-29T06:43:06.421Z,1.30
2019-01-29T06:45:35.155Z,1.30
2019-01-29T06:48:04.291Z,1.20
2019-01-29T06:50:32.357Z,1.20
2019-01-29T06:53:03.608Z,1.20
2019-01-29T06:55:32.151Z,1.20
2019-01-29T06:58:00.599Z,1.20
2019-01-29T07:00:30.156Z,1.20
2019-01-29T07:03:03.362Z,1.20
2019-01-29T07:05:31.561Z,1.20
2019-01-29T07:08:04.117Z,1.20
2019-01-29T07:10:33.430Z,1.30
2019-01-29T07:13:09.075Z,1.30
2019-01-29T07:15:55.111Z,1.30
2019-01-29T07:18:36.537Z,1.30
2019-01-29T07:21:07.289Z,1.30
2019-01-29T07:23:36.652Z,1.30
2019-01-29T07:26:06.362Z,1.30
2019-01-29T07:28:34.582Z,1.30
2019-01-29T07:31:03.124Z,1.30
2019-01-29T07:33:31.578Z,1.30
2019-01-29T07:35:59.883Z,1.30
2019-01-29T07:38:28.278Z,1.30
2019-01-29T07:40:56.599Z,1.30
2019-01-29T07:43:24.997Z,1.30
2019-01-29T07:45:53.391Z,1.30
2019-01-29T07:48:21.722Z,1.30
2019-01-29T07:50:50.388Z,1.30
2019-01-29T07:53:18.678Z,1.30
2019-01-29T07:55:47.441Z,1.50
2019-01-29T07:58:15.367Z,1.60
2019-01-29T08:00:43.606Z,1.70
2019-01-29T08:03:12.092Z,1.80
2019-01-29T08:05:40.500Z,1.90
2019-01-29T08:08:08.762Z,2.00
2019-01-29T08:10:36.722Z,2.10
2019-01-29T08:13:05.329Z,2.40
2019-01-29T08:15:37.560Z,2.40
2019-01-29T08:18:08.580Z,2.50
2019-01-29T08:20:37.033Z,2.50
2019-01-29T08:23:05.679Z,2.50
2019-01-29T08:25:35.325Z,2.50
2019-01-29T08:28:04.616Z,2.60
2019-01-29T08:30:32.887Z,2.60
2019-01-29T08:33:01.860Z,2.70
2019-01-29T08:35:33.069Z,2.80
2019-01-29T08:38:01.826Z,2.90
2019-01-29T08:40:33.815Z,2.90
2019-01-29T08:43:02.622Z,2.80
2019-01-29T08:45:34.528Z,2.90
2019-01-29T08:48:04.143Z,3.00
2019-01-29T08:50:33.826Z,3.00
2019-01-29T08:53:01.919Z,2.90
2019-01-29T08:55:30.348Z,2.90
2019-01-29T08:58:01.335Z,3.30
2019-01-29T09:00:29.090Z,3.60
2019-01-29T09:03:00.477Z,3.90
2019-01-29T09:05:29.551Z,4.20
2019-01-29T09:07:58.155Z,4.50
2019-01-29T09:10:27.697Z,4.70
2019-01-29T09:13:03.226Z,5.30
2019-01-29T09:15:31.775Z,6.50
2019-01-29T09:18:00.976Z,8.10
2019-01-29T09:20:28.848Z,8.70
2019-01-29T09:22:57.059Z,9.00
2019-01-29T09:25:25.472Z,9.20
2019-01-29T09:27:54.093Z,9.40
2019-01-29T09:30:22.415Z,9.10
2019-01-29T09:32:51.681Z,9.10
2019-01-29T09:35:20.300Z,9.70
2019-01-29T09:37:48.569Z,10.20
2019-01-29T09:40:17.948Z,10.70
2019-01-29T09:42:46.038Z,11.40
2019-01-29T09:45:15.776Z,11.20
2019-01-29T09:47:46.270Z,10.50
2019-01-29T09:50:18.812Z,10.70
2019-01-29T09:52:48.195Z,11.40
2019-01-29T09:55:17.607Z,11.70
2019-01-29T09:57:45.471Z,12.20
2019-01-29T10:00:17.528Z,12.30
2019-01-29T10:02:46.218Z,12.10
2019-01-29T10:05:15.203Z,12.10
2019-01-29T10:07:44.165Z,12.30
2019-01-29T10:10:12.656Z,12.40
2019-01-29T10:12:41.098Z,12.20
2019-01-29T10:15:11.715Z,12.50
2019-01-29T10:17:39.810Z,12.50
2019-01-29T10:20:08.324Z,12.70
2019-01-29T10:22:37.027Z,13.20
2019-01-29T10:25:06.442Z,13.30
2019-01-29T10:27:34.900Z,13.00
2019-01-29T10:30:03.873Z,12.60
2019-01-29T10:32:32.220Z,12.30
2019-01-29T10:35:00.387Z,12.00
2019-01-29T10:37:30.021Z,12.10
2019-01-29T10:39:58.083Z,12.40
2019-01-29T10:42:26.729Z,12.90
2019-01-29T10:44:54.804Z,13.10
2019-01-29T10:47:23.725Z,13.20
2019-01-29T10:49:51.931Z,12.70
2019-01-29T10:52:20.436Z,12.20
2019-01-29T10:54:48.887Z,12.00
2019-01-29T10:57:17.284Z,11.60
2019-01-29T10:59:45.961Z,11.50
2019-01-29T11:02:23.587Z,11.40
2019-01-29T11:04:56.721Z,11.30
2019-01-29T11:07:25.471Z,11.20
2019-01-29T11:09:53.677Z,10.90
2019-01-29T11:12:22.323Z,10.90
2019-01-29T11:14:50.477Z,11.00
2019-01-29T11:17:18.722Z,11.30
2019-01-29T11:19:47.308Z,11.10
2019-01-29T11:22:15.261Z,10.70
2019-01-29T11:24:45.086Z,10.80
2019-01-29T11:27:13.321Z,10.90
2019-01-29T11:29:41.905Z,10.40
2019-01-29T11:32:10.565Z,9.90
2019-01-29T11:34:39.507Z,9.60
2019-01-29T11:37:07.673Z,9.40
2019-01-29T11:39:35.801Z,9.50
2019-01-29T11:42:04.250Z,9.20
2019-01-29T11:44:32.235Z,9.40
2019-01-29T11:47:01.014Z,9.50
2019-01-29T11:49:29.181Z,9.30
2019-01-29T11:51:57.890Z,8.90
2019-01-29T11:54:25.993Z,8.90
2019-01-29T11:56:54.653Z,8.80
2019-01-29T11:59:23.323Z,8.70
2019-01-29T12:01:51.821Z,8.70
2019-01-29T12:04:19.775Z,8.90
2019-01-29T12:06:48.217Z,8.80
2019-01-29T12:09:16.672Z,8.70
2019-01-29T12:11:44.725Z,8.60
2019-01-29T12:14:13.055Z,8.40
2019-01-29T12:16:41.140Z,8.50
2019-01-29T12:19:09.399Z,8.90
2019-01-29T12:21:37.955Z,9.00
2019-01-29T12:24:06.012Z,9.10
2019-01-29T12:26:34.698Z,8.90
2019-01-29T12:29:03.456Z,8.70
2019-01-29T12:31:31.661Z,8.70
2019-01-29T12:34:00.017Z,8.80
2019-01-29T12:36:28.378Z,8.70
2019-01-29T12:38:56.580Z,8.70
2019-01-29T12:41:25.265Z,8.70
2019-01-29T12:43:54.080Z,8.70
2019-01-29T12:46:22.470Z,8.70
2019-01-29T12:48:50.865Z,8.60
2019-01-29T12:51:29.300Z,8.50
2019-01-29T12:53:57.434Z,8.50
2019-01-29T12:56:26.445Z,8.50
2019-01-29T12:58:54.902Z,8.30
2019-01-29T13:01:23.522Z,8.10
2019-01-29T13:03:51.982Z,7.80
2019-01-29T13:06:20.863Z,7.60
2019-01-29T13:08:49.365Z,7.60
2019-01-29T13:11:17.638Z,7.80
2019-01-29T13:13:46.091Z,7.80
2019-01-29T13:16:14.112Z,7.80
2019-01-29T13:18:42.833Z,7.80
2019-01-29T13:21:12.331Z,7.90
2019-01-29T13:23:40.800Z,7.90
2019-01-29T13:26:09.438Z,7.80
2019-01-29T13:28:37.537Z,7.80
2019-01-29T13:31:06.058Z,7.80
2019-01-29T13:33:34.717Z,7.70
2019-01-29T13:36:07.332Z,7.60
2019-01-29T13:38:35.932Z,7.60
2019-01-29T13:41:04.053Z,7.50
2019-01-29T13:43:31.918Z,7.50
2019-01-29T13:46:00.300Z,7.60
2019-01-29T13:48:28.824Z,7.70
2019-01-29T13:50:59.621Z,7.70
2019-01-29T13:53:27.592Z,7.70
2019-01-29T13:55:55.958Z,7.60
2019-01-29T13:58:24.865Z,7.60
2019-01-29T14:00:53.234Z,7.80
2019-01-29T14:03:21.330Z,7.80
2019-01-29T14:05:49.672Z,7.60
2019-01-29T14:08:18.075Z,7.60
2019-01-29T14:10:46.435Z,7.70
2019-01-29T14:13:15.078Z,7.70
2019-01-29T14:15:51.962Z,7.60
2019-01-29T14:18:22.116Z,7.70
2019-01-29T14:20:50.465Z,7.70
2019-01-29T14:23:19.236Z,7.80
2019-01-29T14:25:47.749Z,7.80
2019-01-29T14:28:16.113Z,7.80
2019-01-29T14:30:44.809Z,7.70
2019-01-29T14:33:13.186Z,7.80
2019-01-29T14:35:44.579Z,7.70
2019-01-29T14:38:47.155Z,7.80
2019-01-29T14:41:17.385Z,7.80
2019-01-29T14:43:47.615Z,7.70
2019-01-29T14:46:16.293Z,7.50
2019-01-29T14:48:44.593Z,7.50
2019-01-29T14:51:13.171Z,7.50
2019-01-29T14:53:41.632Z,7.40
2019-01-29T14:56:10.985Z,7.30
2019-01-29T14:58:40.366Z,7.30
2019-01-29T15:01:08.476Z,7.30
2019-01-29T15:03:36.917Z,7.20
2019-01-29T15:06:05.014Z,7.10
2019-01-29T15:08:33.373Z,7.00
2019-01-29T15:11:01.295Z,6.90
2019-01-29T15:13:29.945Z,6.90
2019-01-29T15:16:06.509Z,6.90
2019-01-29T15:18:38.325Z,7.00
2019-01-29T15:21:06.485Z,7.00
2019-01-29T15:23:34.694Z,6.90
2019-01-29T15:26:02.582Z,6.80
2019-01-29T15:28:30.657Z,6.70
2019-01-29T15:30:58.827Z,6.70
2019-01-29T15:33:27.125Z,6.70
2019-01-29T15:35:55.166Z,6.70
2019-01-29T15:38:23.340Z,6.60
2019-01-29T15:40:54.609Z,6.60
2019-01-29T15:43:22.463Z,6.60
2019-01-29T15:45:50.195Z,6.50
2019-01-29T15:48:18.094Z,6.50
2019-01-29T15:50:46.478Z,6.50
2019-01-29T15:53:15.361Z,6.50
2019-01-29T15:55:43.296Z,6.50
2019-01-29T15:58:11.717Z,6.50
2019-01-29T16:00:39.852Z,6.40
2019-01-29T16:03:08.063Z,6.40
2019-01-29T16:05:36.656Z,6.40
2019-01-29T16:08:06.212Z,6.30
2019-01-29T16:10:39.870Z,6.20
2019-01-29T16:13:05.302Z,6.20
2019-01-29T16:15:35.095Z,6.20
2019-01-29T16:18:03.659Z,6.10
2019-01-29T16:20:31.743Z,6.10
2019-01-29T16:22:59.668Z,6.10
2019-01-29T16:25:28.229Z,6.10
2019-01-29T16:27:58.551Z,6.10
2019-01-29T16:30:27.157Z,6.10
2019-01-29T16:32:55.668Z,6.00
2019-01-29T16:35:29.305Z,6.00
2019-01-29T16:37:58.103Z,5.90
2019-01-29T16:40:26.566Z,5.90
2019-01-29T16:42:56.570Z,5.90
2019-01-29T16:45:29.568Z,5.90
2019-01-29T16:47:58.340Z,5.90
2019-01-29T16:50:26.705Z,5.80
2019-01-29T16:52:54.761Z,5.80
2019-01-29T16:55:23.053Z,5.70
2019-01-29T16:57:51.668Z,5.60
2019-01-29T17:00:23.323Z,5.40
2019-01-29T17:02:51.767Z,5.30
2019-01-29T17:05:20.150Z,5.10
2019-01-29T17:07:48.644Z,5.00
2019-01-29T17:10:17.426Z,4.90
2019-01-29T17:12:45.314Z,4.80
2019-01-29T17:15:17.025Z,4.70
2019-01-29T17:17:45.129Z,4.50
2019-01-29T17:20:16.097Z,4.40
2019-01-29T17:22:44.553Z,4.30
2019-01-29T17:25:13.325Z,4.20
2019-01-29T17:27:42.034Z,4.10
2019-01-29T17:30:20.854Z,4.10
2019-01-29T17:32:51.073Z,4.00
2019-01-29T17:35:20.684Z,4.00
2019-01-29T17:37:49.391Z,3.90
2019-01-29T17:40:17.832Z,3.80
2019-01-29T17:42:46.206Z,3.80
2019-01-29T17:45:26.013Z,3.80
2019-01-29T17:47:54.535Z,3.70
2019-01-29T17:50:25.680Z,3.50
2019-01-29T17:52:54.319Z,3.50
2019-01-29T17:55:22.824Z,3.30
2019-01-29T17:57:51.443Z,3.30
2019-01-29T18:00:23.028Z,3.30
2019-01-29T18:02:51.128Z,3.30
2019-01-29T18:05:19.350Z,3.30
2019-01-29T18:07:47.468Z,3.40
2019-01-29T18:10:15.967Z,3.40
2019-01-29T18:12:44.843Z,3.50
2019-01-29T18:15:16.001Z,3.60
2019-01-29T18:17:48.133Z,3.60
2019-01-29T18:20:15.889Z,3.60
2019-01-29T18:22:44.103Z,3.60
2019-01-29T18:25:13.540Z,3.60
2019-01-29T18:27:42.549Z,3.60
2019-01-29T18:30:14.613Z,3.60
2019-01-29T18:32:44.514Z,3.70
2019-01-29T18:35:13.111Z,3.70
2019-01-29T18:37:41.182Z,3.70
2019-01-29T18:40:11.984Z,3.80
2019-01-29T18:42:42.344Z,3.80
2019-01-29T18:45:10.913Z,3.80
2019-01-29T18:47:39.299Z,3.90
2019-01-29T18:50:08.990Z,3.90
2019-01-29T18:52:37.888Z,3.90
2019-01-29T18:55:06.593Z,4.00
2019-01-29T18:57:35.385Z,4.00
2019-01-29T19:00:04.495Z,4.00
2019-01-29T19:02:32.687Z,4.00
2019-01-29T19:05:01.312Z,4.10
2019-01-29T19:07:29.743Z,4.10
2019-01-29T19:09:58.837Z,4.10
2019-01-29T19:12:27.282Z,4.20
2019-01-29T19:14:55.518Z,4.20
2019-01-29T19:17:24.031Z,4.20
2019-01-29T19:19:52.890Z,4.30
2019-01-29T19:22:22.737Z,4.30
2019-01-29T19:24:51.429Z,4.30
2019-01-29T19:27:19.544Z,4.30
2019-01-29T19:29:47.574Z,4.40
2019-01-29T19:32:15.877Z,4.40
2019-01-29T19:34:44.360Z,4.30
2019-01-29T19:37:12.745Z,4.40
2019-01-29T19:39:41.187Z,4.40
2019-01-29T19:42:09.164Z,4.50
2019-01-29T19:44:37.835Z,4.50
2019-01-29T19:47:06.220Z,4.50
2019-01-29T19:49:34.289Z,4.50
2019-01-29T19:52:02.657Z,4.60
2019-01-29T19:54:32.306Z,4.60
2019-01-29T19:57:00.890Z,4.60
2019-01-29T19:59:29.319Z,4.60
2019-01-29T20:01:58.331Z,4.70
2019-01-29T20:04:27.744Z,4.70
2019-01-29T20:06:55.834Z,4.80
2019-01-29T20:09:24.239Z,4.80
2019-01-29T20:11:52.717Z,4.80
2019-01-29T20:14:21.120Z,4.90
2019-01-29T20:16:49.208Z,4.90
2019-01-29T20:19:17.620Z,4.90
2019-01-29T20:21:46.289Z,4.90
2019-01-29T20:24:16.942Z,4.90
2019-01-29T20:26:44.907Z,4.90
2019-01-29T20:29:13.541Z,4.90
2019-01-29T20:31:42.265Z,4.90
2019-01-29T20:34:10.651Z,4.90
2019-01-29T20:36:38.964Z,5.00
2019-01-29T20:39:08.798Z,5.10
2019-01-29T20:41:36.993Z,5.10
2019-01-29T20:44:05.138Z,5.00
2019-01-29T20:46:33.440Z,5.10
2019-01-29T20:49:01.722Z,5.20
2019-01-29T20:51:29.765Z,5.20
2019-01-29T20:53:58.329Z,5.20
2019-01-29T20:56:26.421Z,5.30
2019-01-29T20:58:54.704Z,5.30
2019-01-29T21:01:23.062Z,5.40
2019-01-29T21:03:51.247Z,5.40
2019-01-29T21:06:19.850Z,5.50
2019-01-29T21:08:47.907Z,5.50
2019-01-29T21:11:16.348Z,5.60
2019-01-29T21:13:44.952Z,5.60
2019-01-29T21:16:13.337Z,5.70
2019-01-29T21:18:42.115Z,5.70
2019-01-29T21:21:12.014Z,5.70
2019-01-29T21:23:40.459Z,5.70
2019-01-29T21:26:08.905Z,5.80
2019-01-29T21:28:37.122Z,5.80
2019-01-29T21:31:05.462Z,5.90
2019-01-29T21:33:33.849Z,5.90
2019-01-29T21:36:02.605Z,6.00
2019-01-29T21:38:31.104Z,6.10
2019-01-29T21:40:59.079Z,6.20
2019-01-29T21:43:27.685Z,6.30
2019-01-29T21:45:55.712Z,6.30
2019-01-29T21:48:23.617Z,6.30
2019-01-29T21:50:52.286Z,6.40
2019-01-29T21:53:20.513Z,6.50
2019-01-29T21:55:48.944Z,6.50
2019-01-29T21:58:17.054Z,6.50
2019-01-29T22:00:45.618Z,6.50
2019-01-29T22:03:14.723Z,6.50
2019-01-29T22:05:42.781Z,6.50
2019-01-29T22:08:11.458Z,6.50
2019-01-29T22:10:40.072Z,6.60
2019-01-29T22:13:10.725Z,6.70
2019-01-29T22:15:39.036Z,6.70
2019-01-29T22:18:08.972Z,6.70
2019-01-29T22:20:37.662Z,6.70
2019-01-29T22:23:05.651Z,6.70
2019-01-29T22:25:35.757Z,6.60
2019-01-29T22:28:04.659Z,6.60
2019-01-29T22:30:34.281Z,6.50
2019-01-29T22:33:02.954Z,6.50
2019-01-29T22:35:31.036Z,6.50
2019-01-29T22:37:59.293Z,6.40
2019-01-29T22:40:28.164Z,6.40
2019-01-29T22:42:56.996Z,6.40
2019-01-29T22:45:25.137Z,6.30
2019-01-29T22:47:53.483Z,6.30
2019-01-29T22:50:27.341Z,6.20
2019-01-29T22:52:55.793Z,6.20
2019-01-29T22:55:24.168Z,6.20
2019-01-29T22:57:52.848Z,6.20
2019-01-29T23:00:52.929Z,6.10
2019-01-29T23:03:26.502Z,6.10
2019-01-29T23:06:20.351Z,6.00
2019-01-29T23:08:48.769Z,5.90
2019-01-29T23:11:17.132Z,5.90
2019-01-29T23:13:45.812Z,5.80
2019-01-29T23:16:14.291Z,5.80
2019-01-29T23:18:42.904Z,5.80
2019-01-29T23:21:11.358Z,5.70
2019-01-29T23:23:39.607Z,5.60
2019-01-29T23:26:07.968Z,5.60
2019-01-29T23:28:36.376Z,5.50
2019-01-29T23:31:05.245Z,5.40
2019-01-29T23:33:33.764Z,5.40
2019-01-29T23:36:02.518Z,5.30
2019-01-29T23:38:30.495Z,5.20
2019-01-29T23:40:58.890Z,5.10
2019-01-29T23:43:27.254Z,5.10
2019-01-29T23:45:55.398Z,5.00
2019-01-29T23:48:23.692Z,4.90
2019-01-29T23:50:52.060Z,4.90
2019-01-29T23:53:20.468Z,4.80
2019-01-29T23:55:48.622Z,4.70
2019-01-29T23:58:16.616Z,4.60
